sensor_id;sensor_type;location;lat;lon;timestamp;P1;durP1;ratioP1;P2;durP2;ratioP2
27576;SDS011;15011;53.380;10.034;2023-02-28T00:01:51;18.88;;;10.38;;
27576;SDS011;15011;53.380;10.034;2023-02-28T00:06:51;18.38;;;10.00;;
27576;SDS011;15011;53.380;10.034;2023-02-28T00:11:52;13.90;;;8.60;;
27576;SDS011;15011;53.380;10.034;2023-02-28T00:16:52;20.25;;;8.85;;
27576;SDS011;15011;53.380;10.034;2023-02-28T00:21:52;14.85;;;8.43;;
27576;SDS011;15011;53.380;10.034;2023-02-28T00:26:53;19.25;;;9.98;;
27576;SDS011;15011;53.380;10.034;2023-02-28T00:31:53;16.23;;;9.13;;
27576;SDS011;15011;53.380;10.034;2023-02-28T00:36:54;16.00;;;9.27;;
27576;SDS011;15011;53.380;10.034;2023-02-28T00:41:54;16.25;;;8.15;;
27576;SDS011;15011;53.380;10.034;2023-02-28T00:46:55;13.95;;;7.55;;
27576;SDS011;15011;53.380;10.034;2023-02-28T00:51:56;12.20;;;7.40;;
27576;SDS011;15011;53.380;10.034;2023-02-28T00:56:57;14.68;;;7.65;;
27576;SDS011;15011;53.380;10.034;2023-02-28T01:01:57;14.38;;;7.40;;
27576;SDS011;15011;53.380;10.034;2023-02-28T01:06:58;14.65;;;8.32;;
27576;SDS011;15011;53.380;10.034;2023-02-28T01:11:58;12.82;;;7.18;;
27576;SDS011;15011;53.380;10.034;2023-02-28T01:16:59;11.77;;;6.95;;
27576;SDS011;15011;53.380;10.034;2023-02-28T01:22:02;15.13;;;7.93;;
27576;SDS011;15011;53.380;10.034;2023-02-28T01:27:03;15.65;;;8.40;;
27576;SDS011;15011;53.380;10.034;2023-02-28T01:32:04;13.93;;;7.35;;
27576;SDS011;15011;53.380;10.034;2023-02-28T01:37:04;14.68;;;6.80;;
27576;SDS011;15011;53.380;10.034;2023-02-28T01:42:04;15.57;;;6.90;;
27576;SDS011;15011;53.380;10.034;2023-02-28T01:47:05;18.77;;;9.23;;
27576;SDS011;15011;53.380;10.034;2023-02-28T01:52:05;18.50;;;10.35;;
27576;SDS011;15011;53.380;10.034;2023-02-28T01:57:10;16.42;;;8.98;;
27576;SDS011;15011;53.380;10.034;2023-02-28T02:02:14;14.27;;;7.70;;
27576;SDS011;15011;53.380;10.034;2023-02-28T02:07:17;13.05;;;6.72;;
27576;SDS011;15011;53.380;10.034;2023-02-28T02:12:24;18.23;;;6.72;;
27576;SDS011;15011;53.380;10.034;2023-02-28T02:17:50;12.48;;;6.50;;
27576;SDS011;15011;53.380;10.034;2023-02-28T02:49:50;12.60;;;5.82;;
27576;SDS011;15011;53.380;10.034;2023-02-28T02:54:53;10.27;;;5.85;;
27576;SDS011;15011;53.380;10.034;2023-02-28T02:59:55;11.27;;;5.97;;
27576;SDS011;15011;53.380;10.034;2023-02-28T03:04:57;13.48;;;6.57;;
27576;SDS011;15011;53.380;10.034;2023-02-28T03:10:00;10.80;;;6.60;;
27576;SDS011;15011;53.380;10.034;2023-02-28T03:20:12;12.13;;;6.10;;
27576;SDS011;15011;53.380;10.034;2023-02-28T03:30:36;8.70;;;5.18;;
27576;SDS011;15011;53.380;10.034;2023-02-28T03:35:48;14.07;;;5.38;;
27576;SDS011;15011;53.380;10.034;2023-02-28T03:40:55;10.53;;;4.90;;
27576;SDS011;15011;53.380;10.034;2023-02-28T03:45:59;11.52;;;5.25;;
27576;SDS011;15011;53.380;10.034;2023-02-28T03:51:02;10.25;;;4.75;;
27576;SDS011;15011;53.380;10.034;2023-02-28T04:01:32;10.77;;;5.20;;
27576;SDS011;15011;53.380;10.034;2023-02-28T04:06:35;10.50;;;4.82;;
27576;SDS011;15011;53.380;10.034;2023-02-28T04:11:40;13.45;;;4.93;;
27576;SDS011;15011;53.380;10.034;2023-02-28T04:16:42;11.75;;;7.07;;
27576;SDS011;15011;53.380;10.034;2023-02-28T04:21:43;16.35;;;7.88;;
27576;SDS011;15011;53.380;10.034;2023-02-28T04:26:46;9.65;;;5.90;;
27576;SDS011;15011;53.380;10.034;2023-02-28T04:31:47;12.48;;;5.13;;
27576;SDS011;15011;53.380;10.034;2023-02-28T04:36:48;11.38;;;5.40;;
27576;SDS011;15011;53.380;10.034;2023-02-28T04:41:53;10.30;;;5.90;;
27576;SDS011;15011;53.380;10.034;2023-02-28T04:46:54;9.27;;;5.78;;
27576;SDS011;15011;53.380;10.034;2023-02-28T04:51:54;11.18;;;5.47;;
27576;SDS011;15011;53.380;10.034;2023-02-28T04:56:55;10.70;;;4.75;;
27576;SDS011;15011;53.380;10.034;2023-02-28T05:01:56;11.70;;;5.50;;
27576;SDS011;15011;53.380;10.034;2023-02-28T05:06:56;9.33;;;5.17;;
27576;SDS011;15011;53.380;10.034;2023-02-28T05:11:57;10.40;;;4.88;;
27576;SDS011;15011;53.380;10.034;2023-02-28T05:16:58;11.63;;;5.25;;
27576;SDS011;15011;53.380;10.034;2023-02-28T05:21:58;15.98;;;5.53;;
27576;SDS011;15011;53.380;10.034;2023-02-28T05:27:02;8.40;;;5.30;;
27576;SDS011;15011;53.380;10.034;2023-02-28T05:32:03;10.88;;;5.70;;
27576;SDS011;15011;53.380;10.034;2023-02-28T05:37:04;11.35;;;5.80;;
27576;SDS011;15011;53.380;10.034;2023-02-28T05:42:05;9.47;;;5.07;;
27576;SDS011;15011;53.380;10.034;2023-02-28T05:47:06;11.98;;;5.38;;
27576;SDS011;15011;53.380;10.034;2023-02-28T05:52:07;14.00;;;5.22;;
27576;SDS011;15011;53.380;10.034;2023-02-28T05:57:08;11.43;;;5.15;;
27576;SDS011;15011;53.380;10.034;2023-02-28T06:02:10;10.27;;;5.00;;
27576;SDS011;15011;53.380;10.034;2023-02-28T06:07:12;9.70;;;5.40;;
27576;SDS011;15011;53.380;10.034;2023-02-28T06:12:13;14.27;;;6.70;;
27576;SDS011;15011;53.380;10.034;2023-02-28T06:17:13;13.60;;;6.43;;
27576;SDS011;15011;53.380;10.034;2023-02-28T06:22:14;10.15;;;6.00;;
27576;SDS011;15011;53.380;10.034;2023-02-28T06:27:15;14.82;;;5.93;;
27576;SDS011;15011;53.380;10.034;2023-02-28T06:32:15;9.73;;;5.60;;
27576;SDS011;15011;53.380;10.034;2023-02-28T06:37:16;11.20;;;5.60;;
27576;SDS011;15011;53.380;10.034;2023-02-28T06:42:17;11.98;;;5.60;;
27576;SDS011;15011;53.380;10.034;2023-02-28T06:47:18;12.02;;;5.55;;
27576;SDS011;15011;53.380;10.034;2023-02-28T06:52:18;11.38;;;5.70;;
27576;SDS011;15011;53.380;10.034;2023-02-28T06:57:18;13.10;;;5.75;;
27576;SDS011;15011;53.380;10.034;2023-02-28T07:02:19;20.67;;;9.48;;
27576;SDS011;15011;53.380;10.034;2023-02-28T07:07:19;14.75;;;5.78;;
27576;SDS011;15011;53.380;10.034;2023-02-28T07:12:20;11.82;;;6.35;;
27576;SDS011;15011;53.380;10.034;2023-02-28T07:17:21;13.63;;;7.07;;
27576;SDS011;15011;53.380;10.034;2023-02-28T07:22:21;13.88;;;6.75;;
27576;SDS011;15011;53.380;10.034;2023-02-28T07:27:21;16.90;;;6.43;;
27576;SDS011;15011;53.380;10.034;2023-02-28T07:32:25;11.75;;;6.30;;
27576;SDS011;15011;53.380;10.034;2023-02-28T07:37:26;14.18;;;6.03;;
27576;SDS011;15011;53.380;10.034;2023-02-28T07:42:26;11.98;;;6.10;;
27576;SDS011;15011;53.380;10.034;2023-02-28T07:47:28;10.70;;;6.07;;
27576;SDS011;15011;53.380;10.034;2023-02-28T07:52:29;11.07;;;5.60;;
27576;SDS011;15011;53.380;10.034;2023-02-28T07:57:29;14.55;;;6.43;;
27576;SDS011;15011;53.380;10.034;2023-02-28T08:02:30;21.65;;;10.02;;
27576;SDS011;15011;53.380;10.034;2023-02-28T08:07:30;11.50;;;6.00;;
27576;SDS011;15011;53.380;10.034;2023-02-28T08:12:31;9.27;;;5.40;;
27576;SDS011;15011;53.380;10.034;2023-02-28T08:17:31;9.80;;;5.20;;
27576;SDS011;15011;53.380;10.034;2023-02-28T08:22:32;9.38;;;4.60;;
27576;SDS011;15011;53.380;10.034;2023-02-28T08:27:32;9.23;;;4.55;;
27576;SDS011;15011;53.380;10.034;2023-02-28T08:32:33;9.18;;;3.88;;
27576;SDS011;15011;53.380;10.034;2023-02-28T08:37:33;8.27;;;3.63;;
27576;SDS011;15011;53.380;10.034;2023-02-28T08:42:34;8.68;;;3.80;;
27576;SDS011;15011;53.380;10.034;2023-02-28T08:47:35;5.10;;;2.88;;
27576;SDS011;15011;53.380;10.034;2023-02-28T08:52:35;6.25;;;2.92;;
27576;SDS011;15011;53.380;10.034;2023-02-28T08:57:36;4.43;;;2.35;;
27576;SDS011;15011;53.380;10.034;2023-02-28T09:02:36;6.85;;;2.70;;
27576;SDS011;15011;53.380;10.034;2023-02-28T09:07:37;7.70;;;2.65;;
27576;SDS011;15011;53.380;10.034;2023-02-28T09:12:37;5.65;;;2.20;;
27576;SDS011;15011;53.380;10.034;2023-02-28T09:17:38;7.50;;;2.33;;
27576;SDS011;15011;53.380;10.034;2023-02-28T09:22:38;5.55;;;2.08;;
27576;SDS011;15011;53.380;10.034;2023-02-28T09:27:39;3.08;;;1.70;;
27576;SDS011;15011;53.380;10.034;2023-02-28T09:32:39;2.33;;;1.30;;
27576;SDS011;15011;53.380;10.034;2023-02-28T09:37:40;2.25;;;0.73;;
27576;SDS011;15011;53.380;10.034;2023-02-28T09:42:40;1.08;;;0.90;;
27576;SDS011;15011;53.380;10.034;2023-02-28T09:47:41;1.08;;;0.73;;
27576;SDS011;15011;53.380;10.034;2023-02-28T09:52:45;1.70;;;0.85;;
27576;SDS011;15011;53.380;10.034;2023-02-28T09:57:46;3.23;;;1.10;;
27576;SDS011;15011;53.380;10.034;2023-02-28T10:08:13;1.20;;;0.88;;
27576;SDS011;15011;53.380;10.034;2023-02-28T10:13:25;5.57;;;1.00;;
27576;SDS011;15011;53.380;10.034;2023-02-28T10:18:28;2.17;;;1.10;;
27576;SDS011;15011;53.380;10.034;2023-02-28T10:23:36;3.90;;;1.80;;
27576;SDS011;15011;53.380;10.034;2023-02-28T10:28:37;4.05;;;1.60;;
27576;SDS011;15011;53.380;10.034;2023-02-28T10:33:38;2.28;;;1.55;;
27576;SDS011;15011;53.380;10.034;2023-02-28T10:38:39;5.63;;;1.50;;
27576;SDS011;15011;53.380;10.034;2023-02-28T10:43:41;3.00;;;1.30;;
27576;SDS011;15011;53.380;10.034;2023-02-28T10:48:47;2.22;;;1.20;;
27576;SDS011;15011;53.380;10.034;2023-02-28T10:54:06;5.18;;;2.30;;
27576;SDS011;15011;53.380;10.034;2023-02-28T11:09:36;3.60;;;1.45;;
27576;SDS011;15011;53.380;10.034;2023-02-28T11:14:49;5.20;;;1.80;;
27576;SDS011;15011;53.380;10.034;2023-02-28T11:19:52;2.88;;;1.60;;
27576;SDS011;15011;53.380;10.034;2023-02-28T11:29:55;4.53;;;1.90;;
27576;SDS011;15011;53.380;10.034;2023-02-28T11:35:01;3.88;;;1.27;;
27576;SDS011;15011;53.380;10.034;2023-02-28T11:40:02;4.20;;;1.60;;
27576;SDS011;15011;53.380;10.034;2023-02-28T11:56:16;1.88;;;1.30;;
27576;SDS011;15011;53.380;10.034;2023-02-28T12:01:32;3.25;;;1.60;;
27576;SDS011;15011;53.380;10.034;2023-02-28T12:27:59;2.38;;;1.38;;
27576;SDS011;15011;53.380;10.034;2023-02-28T12:33:06;3.45;;;1.63;;
27576;SDS011;15011;53.380;10.034;2023-02-28T12:38:15;3.92;;;1.77;;
27576;SDS011;15011;53.380;10.034;2023-02-28T12:43:19;3.00;;;1.60;;
27576;SDS011;15011;53.380;10.034;2023-02-28T12:48:24;4.40;;;1.83;;
27576;SDS011;15011;53.380;10.034;2023-02-28T12:59:00;15.50;;;8.00;;
27576;SDS011;15011;53.380;10.034;2023-02-28T13:09:22;4.80;;;1.45;;
27576;SDS011;15011;53.380;10.034;2023-02-28T13:19:27;4.07;;;1.30;;
27576;SDS011;15011;53.380;10.034;2023-02-28T13:29:44;5.13;;;1.80;;
27576;SDS011;15011;53.380;10.034;2023-02-28T13:40:26;3.25;;;1.40;;
27576;SDS011;15011;53.380;10.034;2023-02-28T13:45:28;2.67;;;1.35;;
27576;SDS011;15011;53.380;10.034;2023-02-28T13:55:52;3.42;;;1.50;;
27576;SDS011;15011;53.380;10.034;2023-02-28T14:01:11;3.22;;;1.50;;
27576;SDS011;15011;53.380;10.034;2023-02-28T14:11:36;2.10;;;1.58;;
27576;SDS011;15011;53.380;10.034;2023-02-28T14:16:45;2.45;;;1.10;;
27576;SDS011;15011;53.380;10.034;2023-02-28T14:21:52;3.42;;;1.60;;
27576;SDS011;15011;53.380;10.034;2023-02-28T14:27:12;1.88;;;1.20;;
27576;SDS011;15011;53.380;10.034;2023-02-28T14:37:43;3.42;;;1.58;;
27576;SDS011;15011;53.380;10.034;2023-02-28T14:43:00;3.83;;;1.90;;
27576;SDS011;15011;53.380;10.034;2023-02-28T14:48:02;3.92;;;1.67;;
27576;SDS011;15011;53.380;10.034;2023-02-28T14:53:04;2.60;;;1.77;;
27576;SDS011;15011;53.380;10.034;2023-02-28T14:58:20;3.28;;;1.60;;
27576;SDS011;15011;53.380;10.034;2023-02-28T15:08:24;2.97;;;1.50;;
27576;SDS011;15011;53.380;10.034;2023-02-28T15:13:47;2.92;;;1.40;;
27576;SDS011;15011;53.380;10.034;2023-02-28T15:23:59;31.25;;;16.65;;
27576;SDS011;15011;53.380;10.034;2023-02-28T15:29:12;5.57;;;3.03;;
27576;SDS011;15011;53.380;10.034;2023-02-28T15:34:22;5.28;;;1.60;;
27576;SDS011;15011;53.380;10.034;2023-02-28T15:39:28;4.30;;;1.70;;
27576;SDS011;15011;53.380;10.034;2023-02-28T15:44:32;6.22;;;2.35;;
27576;SDS011;15011;53.380;10.034;2023-02-28T15:49:45;6.05;;;2.35;;
27576;SDS011;15011;53.380;10.034;2023-02-28T15:54:52;6.78;;;3.38;;
27576;SDS011;15011;53.380;10.034;2023-02-28T15:59:56;6.25;;;1.95;;
27576;SDS011;15011;53.380;10.034;2023-02-28T16:10:00;2.87;;;1.70;;
27576;SDS011;15011;53.380;10.034;2023-02-28T16:15:03;2.55;;;1.65;;
27576;SDS011;15011;53.380;10.034;2023-02-28T16:25:15;4.28;;;1.75;;
27576;SDS011;15011;53.380;10.034;2023-02-28T16:30:22;3.22;;;1.50;;
27576;SDS011;15011;53.380;10.034;2023-02-28T16:35:24;2.97;;;1.83;;
27576;SDS011;15011;53.380;10.034;2023-02-28T16:40:25;4.30;;;2.20;;
27576;SDS011;15011;53.380;10.034;2023-02-28T16:45:28;6.85;;;2.20;;
27576;SDS011;15011;53.380;10.034;2023-02-28T16:50:29;4.38;;;2.33;;
27576;SDS011;15011;53.380;10.034;2023-02-28T16:55:32;7.47;;;2.45;;
27576;SDS011;15011;53.380;10.034;2023-02-28T17:05:36;5.60;;;2.50;;
27576;SDS011;15011;53.380;10.034;2023-02-28T17:10:38;6.28;;;3.15;;
27576;SDS011;15011;53.380;10.034;2023-02-28T17:15:38;8.50;;;3.60;;
27576;SDS011;15011;53.380;10.034;2023-02-28T17:20:40;6.68;;;3.63;;
27576;SDS011;15011;53.380;10.034;2023-02-28T17:25:42;7.03;;;3.30;;
27576;SDS011;15011;53.380;10.034;2023-02-28T17:30:53;8.63;;;4.32;;
27576;SDS011;15011;53.380;10.034;2023-02-28T17:35:53;7.85;;;4.45;;
27576;SDS011;15011;53.380;10.034;2023-02-28T17:40:54;13.70;;;6.30;;
27576;SDS011;15011;53.380;10.034;2023-02-28T17:45:57;25.95;;;13.13;;
27576;SDS011;15011;53.380;10.034;2023-02-28T17:50:58;15.38;;;9.00;;
27576;SDS011;15011;53.380;10.034;2023-02-28T17:55:58;18.63;;;10.32;;
27576;SDS011;15011;53.380;10.034;2023-02-28T18:00:59;17.23;;;9.38;;
27576;SDS011;15011;53.380;10.034;2023-02-28T18:05:59;17.55;;;9.10;;
27576;SDS011;15011;53.380;10.034;2023-02-28T18:11:00;18.00;;;9.70;;
27576;SDS011;15011;53.380;10.034;2023-02-28T18:16:00;20.67;;;10.20;;
27576;SDS011;15011;53.380;10.034;2023-02-28T18:21:02;20.57;;;9.63;;
27576;SDS011;15011;53.380;10.034;2023-02-28T18:26:07;29.65;;;14.13;;
27576;SDS011;15011;53.380;10.034;2023-02-28T18:31:08;44.75;;;20.30;;
27576;SDS011;15011;53.380;10.034;2023-02-28T18:36:10;36.53;;;16.90;;
27576;SDS011;15011;53.380;10.034;2023-02-28T18:41:10;32.65;;;15.70;;
27576;SDS011;15011;53.380;10.034;2023-02-28T18:46:11;30.20;;;15.45;;
27576;SDS011;15011;53.380;10.034;2023-02-28T18:56:16;19.30;;;11.43;;
27576;SDS011;15011;53.380;10.034;2023-02-28T19:01:19;22.77;;;13.07;;
27576;SDS011;15011;53.380;10.034;2023-02-28T19:06:22;22.35;;;12.30;;
27576;SDS011;15011;53.380;10.034;2023-02-28T19:11:23;22.77;;;12.15;;
27576;SDS011;15011;53.380;10.034;2023-02-28T19:16:24;21.80;;;12.20;;
27576;SDS011;15011;53.380;10.034;2023-02-28T19:21:24;20.45;;;11.77;;
27576;SDS011;15011;53.380;10.034;2023-02-28T19:26:25;27.33;;;13.27;;
27576;SDS011;15011;53.380;10.034;2023-02-28T19:31:26;19.95;;;12.73;;
27576;SDS011;15011;53.380;10.034;2023-02-28T19:36:27;23.98;;;12.60;;
27576;SDS011;15011;53.380;10.034;2023-02-28T19:41:27;23.45;;;13.80;;
27576;SDS011;15011;53.380;10.034;2023-02-28T19:46:27;22.00;;;12.80;;
27576;SDS011;15011;53.380;10.034;2023-02-28T19:51:28;22.63;;;15.57;;
27576;SDS011;15011;53.380;10.034;2023-02-28T19:56:28;23.15;;;14.75;;
27576;SDS011;15011;53.380;10.034;2023-02-28T20:01:29;20.65;;;12.50;;
27576;SDS011;15011;53.380;10.034;2023-02-28T20:06:30;15.95;;;10.30;;
27576;SDS011;15011;53.380;10.034;2023-02-28T20:11:33;19.45;;;10.60;;
27576;SDS011;15011;53.380;10.034;2023-02-28T20:16:34;19.50;;;11.73;;
27576;SDS011;15011;53.380;10.034;2023-02-28T20:21:34;18.13;;;11.07;;
27576;SDS011;15011;53.380;10.034;2023-02-28T20:26:35;24.67;;;13.38;;
27576;SDS011;15011;53.380;10.034;2023-02-28T20:31:36;21.35;;;12.18;;
27576;SDS011;15011;53.380;10.034;2023-02-28T20:36:37;25.20;;;14.38;;
27576;SDS011;15011;53.380;10.034;2023-02-28T20:41:37;23.77;;;14.52;;
27576;SDS011;15011;53.380;10.034;2023-02-28T20:46:38;36.47;;;17.75;;
27576;SDS011;15011;53.380;10.034;2023-02-28T20:56:41;41.55;;;20.20;;
27576;SDS011;15011;53.380;10.034;2023-02-28T21:01:41;55.67;;;24.52;;
27576;SDS011;15011;53.380;10.034;2023-02-28T21:06:42;44.72;;;21.45;;
27576;SDS011;15011;53.380;10.034;2023-02-28T21:11:43;38.85;;;18.58;;
27576;SDS011;15011;53.380;10.034;2023-02-28T21:16:44;39.08;;;19.23;;
27576;SDS011;15011;53.380;10.034;2023-02-28T21:21:45;46.20;;;21.50;;
27576;SDS011;15011;53.380;10.034;2023-02-28T21:26:47;26.02;;;14.55;;
27576;SDS011;15011;53.380;10.034;2023-02-28T21:31:49;16.30;;;9.15;;
27576;SDS011;15011;53.380;10.034;2023-02-28T21:36:50;14.38;;;9.35;;
27576;SDS011;15011;53.380;10.034;2023-02-28T21:41:51;17.42;;;9.98;;
27576;SDS011;15011;53.380;10.034;2023-02-28T21:46:52;16.70;;;9.15;;
27576;SDS011;15011;53.380;10.034;2023-02-28T21:51:56;17.55;;;9.60;;
27576;SDS011;15011;53.380;10.034;2023-02-28T21:56:57;16.77;;;10.15;;
27576;SDS011;15011;53.380;10.034;2023-02-28T22:01:58;16.38;;;10.10;;
27576;SDS011;15011;53.380;10.034;2023-02-28T22:06:59;18.33;;;10.05;;
27576;SDS011;15011;53.380;10.034;2023-02-28T22:12:00;17.40;;;10.68;;
27576;SDS011;15011;53.380;10.034;2023-02-28T22:17:00;17.43;;;10.10;;
27576;SDS011;15011;53.380;10.034;2023-02-28T22:22:01;17.45;;;9.82;;
27576;SDS011;15011;53.380;10.034;2023-02-28T22:27:01;20.45;;;10.23;;
27576;SDS011;15011;53.380;10.034;2023-02-28T22:32:01;16.20;;;9.63;;
27576;SDS011;15011;53.380;10.034;2023-02-28T22:37:02;24.20;;;11.48;;
27576;SDS011;15011;53.380;10.034;2023-02-28T22:42:03;17.85;;;10.10;;
27576;SDS011;15011;53.380;10.034;2023-02-28T22:47:03;17.48;;;9.82;;
27576;SDS011;15011;53.380;10.034;2023-02-28T22:52:04;16.58;;;10.00;;
27576;SDS011;15011;53.380;10.034;2023-02-28T22:57:04;17.70;;;10.10;;
27576;SDS011;15011;53.380;10.034;2023-02-28T23:02:04;19.75;;;9.77;;
27576;SDS011;15011;53.380;10.034;2023-02-28T23:07:05;17.02;;;9.82;;
27576;SDS011;15011;53.380;10.034;2023-02-28T23:12:05;23.40;;;12.13;;
27576;SDS011;15011;53.380;10.034;2023-02-28T23:17:06;24.67;;;12.85;;
27576;SDS011;15011;53.380;10.034;2023-02-28T23:22:06;17.55;;;9.88;;
27576;SDS011;15011;53.380;10.034;2023-02-28T23:27:07;16.58;;;9.05;;
27576;SDS011;15011;53.380;10.034;2023-02-28T23:32:07;17.20;;;9.30;;
27576;SDS011;15011;53.380;10.034;2023-02-28T23:37:07;18.25;;;9.35;;
27576;SDS011;15011;53.380;10.034;2023-02-28T23:42:08;12.82;;;8.10;;
27576;SDS011;15011;53.380;10.034;2023-02-28T23:47:09;13.50;;;8.18;;
27576;SDS011;15011;53.380;10.034;2023-02-28T23:52:11;12.80;;;7.47;;
27576;SDS011;15011;53.380;10.034;2023-02-28T23:57:12;12.18;;;8.00;;
